Station Historical Data
Daily Summary for May 14, 2017 Units:  English    Metric   Both
« Previous Day
Next Day »
Daily Weekly Monthly Yearly Custom
  High: Low: Average:
Temperature: 64.5 °F 48.6 °F 53.5 °F
Dew Point: 52.3 °F 36.9 °F 44.8 °F
Humidity: 89% 39% 73%
Wind Speed: 18.0mph 0.0mph 4.2mph
Wind Gust: 25.0mph - -
Wind- - West
Pressure: 29.90 in 29.68 in -
Precipitation: 0.00 in    
Historical Graphs
 
 
Tabular Data for May 14, 2017
Time Temperature Dew Point Pressure Wind Wind Speed Wind Gust Humidity Rainfall Rate (Hourly)
00:04 50.2 °F 43.6 °F 29.77 in SSW 1.0 mph 1.0 mph 78% 0.00 in
00:09 49.9 °F 43.3 °F 29.77 in Calm   3.0 mph 78% 0.00 in
00:14 49.8 °F 43.5 °F 29.77 in Calm   4.0 mph 79% 0.00 in
00:19 49.6 °F 43.4 °F 29.77 in SW 1.0 mph 4.0 mph 79% 0.00 in
00:24 49.5 °F 43.3 °F 29.77 in SW 1.0 mph 5.0 mph 79% 0.00 in
00:29 49.6 °F 43.7 °F 29.77 in SW 1.0 mph 6.0 mph 80% 0.00 in
00:34 49.6 °F 43.7 °F 29.77 in Calm   5.0 mph 80% 0.00 in
00:39 49.6 °F 43.7 °F 29.77 in SW 1.0 mph 3.0 mph 80% 0.00 in
00:44 49.7 °F 43.8 °F 29.76 in South 1.0 mph 4.0 mph 80% 0.00 in
00:49 49.7 °F 43.8 °F 29.77 in SSW 1.0 mph 4.0 mph 80% 0.00 in
00:54 49.7 °F 43.8 °F 29.77 in SSW 1.0 mph 4.0 mph 80% 0.00 in
00:59 49.7 °F 43.8 °F 29.77 in SSW 1.0 mph 3.0 mph 80% 0.00 in
01:04 49.6 °F 43.7 °F 29.77 in SW 1.0 mph 5.0 mph 80% 0.00 in
01:09 49.6 °F 43.7 °F 29.77 in Calm   3.0 mph 80% 0.00 in
01:14 49.6 °F 44.0 °F 29.76 in SSW 1.0 mph 4.0 mph 81% 0.00 in
01:19 49.6 °F 44.0 °F 29.76 in SSW 1.0 mph 4.0 mph 81% 0.00 in
01:24 49.4 °F 43.8 °F 29.76 in Calm   3.0 mph 81% 0.00 in
01:29 49.4 °F 43.8 °F 29.76 in SW 2.0 mph 2.0 mph 81% 0.00 in
01:34 49.2 °F 43.6 °F 29.76 in Calm   2.0 mph 81% 0.00 in
01:39 49.2 °F 43.6 °F 29.76 in Calm     81% 0.00 in
01:44 49.1 °F 43.5 °F 29.76 in SW 1.0 mph 2.0 mph 81% 0.00 in
01:49 49.0 °F 43.4 °F 29.75 in SW 1.0 mph 2.0 mph 81% 0.00 in
01:54 48.9 °F 43.3 °F 29.75 in Calm   2.0 mph 81% 0.00 in
01:59 48.8 °F 43.5 °F 29.75 in Calm   2.0 mph 82% 0.00 in
02:04 48.9 °F 43.6 °F 29.75 in SW 1.0 mph 2.0 mph 82% 0.00 in
02:09 48.9 °F 44.0 °F 29.75 in Calm   1.0 mph 83% 0.00 in
02:14 48.9 °F 44.0 °F 29.74 in Calm   2.0 mph 83% 0.00 in
02:19 48.9 °F 44.0 °F 29.75 in Calm   2.0 mph 83% 0.00 in
02:24 48.9 °F 44.0 °F 29.75 in SW 1.0 mph 3.0 mph 83% 0.00 in
02:29 49.1 °F 44.5 °F 29.75 in SW 1.0 mph 4.0 mph 84% 0.00 in
02:34 49.2 °F 44.6 °F 29.75 in SW 3.0 mph 5.0 mph 84% 0.00 in
02:39 49.3 °F 44.7 °F 29.75 in WSW 2.0 mph 5.0 mph 84% 0.00 in
02:44 49.4 °F 44.5 °F 29.75 in SW 3.0 mph 6.0 mph 83% 0.00 in
02:49 49.6 °F 44.6 °F 29.74 in Calm   7.0 mph 83% 0.00 in
02:54 49.7 °F 44.7 °F 29.75 in WSW 2.0 mph 5.0 mph 83% 0.00 in
02:59 49.9 °F 44.6 °F 29.75 in SW 6.0 mph 6.0 mph 82% 0.00 in
03:04 49.9 °F 44.6 °F 29.74 in WSW 5.0 mph 8.0 mph 82% 0.00 in
03:09 50.1 °F 44.8 °F 29.74 in WSW 3.0 mph 8.0 mph 82% 0.00 in
03:14 50.1 °F 44.8 °F 29.74 in SW 3.0 mph 7.0 mph 82% 0.00 in
03:19 50.0 °F 44.7 °F 29.74 in WSW 2.0 mph 4.0 mph 82% 0.00 in
03:24 49.9 °F 44.6 °F 29.74 in WSW 2.0 mph 4.0 mph 82% 0.00 in
03:29 49.8 °F 44.5 °F 29.74 in WSW 2.0 mph 4.0 mph 82% 0.00 in
03:34 49.7 °F 44.1 °F 29.74 in WSW 2.0 mph 4.0 mph 81% 0.00 in
03:39 49.5 °F 44.2 °F 29.74 in WSW 3.0 mph 6.0 mph 82% 0.00 in
03:44 49.5 °F 44.2 °F 29.74 in WSW 1.0 mph 7.0 mph 82% 0.00 in
03:49 49.4 °F 44.1 °F 29.74 in SW 3.0 mph 4.0 mph 82% 0.00 in
03:54 49.3 °F 44.4 °F 29.74 in SW 1.0 mph 7.0 mph 83% 0.00 in
03:59 49.2 °F 44.3 °F 29.74 in WSW 3.0 mph 6.0 mph 83% 0.00 in
04:04 49.1 °F 44.2 °F 29.74 in SW 1.0 mph 5.0 mph 83% 0.00 in
04:09 49.1 °F 44.5 °F 29.73 in SW 1.0 mph 4.0 mph 84% 0.00 in
04:14 49.0 °F 44.4 °F 29.73 in SW 2.0 mph 4.0 mph 84% 0.00 in
04:19 49.1 °F 44.5 °F 29.74 in SW 2.0 mph 6.0 mph 84% 0.00 in
04:24 49.0 °F 44.4 °F 29.74 in SW 3.0 mph 6.0 mph 84% 0.00 in
04:29 49.0 °F 44.4 °F 29.73 in SW 2.0 mph 6.0 mph 84% 0.00 in
04:34 49.1 °F 44.8 °F 29.73 in SW 2.0 mph 5.0 mph 85% 0.00 in
04:39 49.0 °F 44.7 °F 29.73 in SW 1.0 mph 3.0 mph 85% 0.00 in
04:44 49.0 °F 44.7 °F 29.73 in SW 2.0 mph 6.0 mph 85% 0.00 in
04:49 48.9 °F 44.6 °F 29.73 in SW 4.0 mph 6.0 mph 85% 0.00 in
04:54 48.9 °F 44.6 °F 29.73 in SSW 2.0 mph 5.0 mph 85% 0.00 in
04:59 48.9 °F 44.6 °F 29.73 in SW 1.0 mph 6.0 mph 85% 0.00 in
05:04 48.8 °F 44.5 °F 29.73 in Calm   3.0 mph 85% 0.00 in
05:09 48.8 °F 44.5 °F 29.73 in SW 2.0 mph 6.0 mph 85% 0.00 in
05:14 48.8 °F 44.8 °F 29.73 in SW 2.0 mph 6.0 mph 86% 0.00 in
05:19 48.8 °F 44.8 °F 29.73 in SW 2.0 mph 5.0 mph 86% 0.00 in
05:24 48.8 °F 44.8 °F 29.73 in SW 4.0 mph 5.0 mph 86% 0.00 in
05:29 48.8 °F 44.8 °F 29.74 in SW 4.0 mph 5.0 mph 86% 0.00 in
05:34 48.9 °F 45.2 °F 29.74 in SW 1.0 mph 5.0 mph 87% 0.00 in
05:39 48.9 °F 45.2 °F 29.74 in SW 3.0 mph 6.0 mph 87% 0.00 in
05:44 48.9 °F 45.2 °F 29.74 in SW 3.0 mph 6.0 mph 87% 0.00 in
05:49 48.9 °F 45.2 °F 29.74 in SW 2.0 mph 6.0 mph 87% 0.00 in
05:54 48.8 °F 45.1 °F 29.74 in SW 2.0 mph 4.0 mph 87% 0.00 in
05:59 48.8 °F 45.1 °F 29.73 in SW 2.0 mph 4.0 mph 87% 0.00 in
06:04 48.8 °F 45.1 °F 29.73 in Calm   3.0 mph 87% 0.00 in
06:09 48.6 °F 44.9 °F 29.74 in Calm     87% 0.00 in
06:14 48.6 °F 44.9 °F 29.73 in Calm   4.0 mph 87% 0.00 in
06:19 48.6 °F 44.9 °F 29.74 in WSW 1.0 mph 5.0 mph 87% 0.00 in
06:24 48.7 °F 45.3 °F 29.74 in WSW 3.0 mph 5.0 mph 88% 0.00 in
06:29 48.8 °F 45.4 °F 29.74 in SW 2.0 mph 6.0 mph 88% 0.00 in
06:34 48.9 °F 45.5 °F 29.74 in SW 2.0 mph 5.0 mph 88% 0.00 in
06:39 49.1 °F 45.7 °F 29.74 in WSW 2.0 mph 5.0 mph 88% 0.00 in
06:44 49.1 °F 45.7 °F 29.75 in WSW 2.0 mph 5.0 mph 88% 0.00 in
06:49 49.2 °F 45.8 °F 29.74 in WSW 2.0 mph 5.0 mph 88% 0.00 in
06:54 49.2 °F 45.8 °F 29.74 in WSW 2.0 mph 4.0 mph 88% 0.00 in
06:59 49.4 °F 46.0 °F 29.74 in SW 2.0 mph 4.0 mph 88% 0.00 in
07:04 49.4 °F 46.3 °F 29.75 in WSW 1.0 mph 4.0 mph 89% 0.00 in
07:09 49.6 °F 46.5 °F 29.75 in WSW 3.0 mph 4.0 mph 89% 0.00 in
07:14 49.6 °F 46.5 °F 29.75 in WSW 2.0 mph 5.0 mph 89% 0.00 in
07:19 49.7 °F 46.6 °F 29.75 in WSW 2.0 mph 3.0 mph 89% 0.00 in
07:24 49.8 °F 46.7 °F 29.75 in Calm   3.0 mph 89% 0.00 in
07:29 49.9 °F 46.8 °F 29.75 in Calm   3.0 mph 89% 0.00 in
07:34 50.0 °F 46.9 °F 29.75 in Calm   3.0 mph 89% 0.00 in
07:39 50.2 °F 47.1 °F 29.75 in Calm   2.0 mph 89% 0.00 in
07:44 50.4 °F 47.3 °F 29.75 in WSW 1.0 mph 3.0 mph 89% 0.00 in
07:49 50.4 °F 47.3 °F 29.75 in WSW 1.0 mph 3.0 mph 89% 0.00 in
07:54 50.6 °F 47.5 °F 29.75 in Calm   3.0 mph 89% 0.00 in
07:59 50.7 °F 47.6 °F 29.75 in Calm   4.0 mph 89% 0.00 in
08:04 51.1 °F 47.7 °F 29.75 in WSW 2.0 mph 5.0 mph 88% 0.00 in
08:09 51.5 °F 47.8 °F 29.75 in WSW 2.0 mph 5.0 mph 87% 0.00 in
08:14 51.7 °F 48.0 °F 29.75 in WSW 3.0 mph 7.0 mph 87% 0.00 in
08:19 51.7 °F 47.6 °F 29.75 in WSW 4.0 mph 6.0 mph 86% 0.00 in
08:24 51.9 °F 47.8 °F 29.75 in WSW 4.0 mph 5.0 mph 86% 0.00 in
08:29 52.0 °F 47.9 °F 29.75 in WSW 2.0 mph 5.0 mph 86% 0.00 in
08:34 52.3 °F 48.2 °F 29.75 in SW 2.0 mph 4.0 mph 86% 0.00 in
08:39 52.5 °F 48.1 °F 29.75 in SW 2.0 mph 5.0 mph 85% 0.00 in
08:44 52.7 °F 48.3 °F 29.75 in SW 2.0 mph 5.0 mph 85% 0.00 in
08:49 52.9 °F 48.5 °F 29.75 in WSW 2.0 mph 4.0 mph 85% 0.00 in
08:54 53.5 °F 48.8 °F 29.75 in SSW 3.0 mph 6.0 mph 84% 0.00 in
08:59 53.7 °F 49.0 °F 29.75 in SW 3.0 mph 5.0 mph 84% 0.00 in
09:04 53.4 °F 48.0 °F 29.75 in SW 3.0 mph 5.0 mph 82% 0.00 in
09:09 53.5 °F 48.1 °F 29.75 in SW 3.0 mph 5.0 mph 82% 0.00 in
09:14 54.2 °F 48.5 °F 29.74 in SW 3.0 mph 7.0 mph 81% 0.00 in
09:19 54.1 °F 48.4 °F 29.74 in SSW 4.0 mph 5.0 mph 81% 0.00 in
09:24 54.1 °F 49.1 °F 29.74 in Calm   6.0 mph 83% 0.00 in
09:29 55.5 °F 49.8 °F 29.75 in WSW 3.0 mph 7.0 mph 81% 0.00 in
09:34 55.4 °F 49.7 °F 29.75 in SW 4.0 mph 10.0 mph 81% 0.00 in
09:39 55.8 °F 49.7 °F 29.75 in SW 3.0 mph 7.0 mph 80% 0.00 in
09:44 56.0 °F 49.6 °F 29.75 in WSW 4.0 mph 8.0 mph 79% 0.00 in
09:49 56.7 °F 49.6 °F 29.74 in WSW 4.0 mph 6.0 mph 77% 0.00 in
09:54 57.1 °F 49.6 °F 29.74 in WSW 4.0 mph 8.0 mph 76% 0.00 in
09:59 56.8 °F 49.3 °F 29.74 in WSW 4.0 mph 8.0 mph 76% 0.00 in
10:04 57.0 °F 49.5 °F 29.74 in SW 4.0 mph 7.0 mph 76% 0.00 in
10:09 57.3 °F 50.1 °F 29.74 in SW 4.0 mph 7.0 mph 77% 0.00 in
10:14 58.3 °F 49.3 °F 29.74 in SW 4.0 mph 8.0 mph 72% 0.00 in
10:19 58.8 °F 50.9 °F 29.74 in SSW 4.0 mph 7.0 mph 75% 0.00 in
10:24 59.4 °F 50.4 °F 29.74 in WSW 5.0 mph 7.0 mph 72% 0.00 in
10:29 59.5 °F 49.7 °F 29.74 in WSW 4.0 mph 8.0 mph 70% 0.00 in
10:34 60.2 °F 49.2 °F 29.74 in West 4.0 mph 8.0 mph 67% 0.00 in
10:39 60.6 °F 49.6 °F 29.74 in West 4.0 mph 8.0 mph 67% 0.00 in
10:44 60.1 °F 49.1 °F 29.74 in WSW 4.0 mph 6.0 mph 67% 0.00 in
10:49 59.9 °F 48.9 °F 29.74 in SW 5.0 mph 7.0 mph 67% 0.00 in
10:54 60.3 °F 50.1 °F 29.74 in WSW 6.0 mph 9.0 mph 69% 0.00 in
10:59 60.4 °F 49.8 °F 29.73 in WSW 2.0 mph 9.0 mph 68% 0.00 in
11:04 60.9 °F 50.7 °F 29.74 in SW 5.0 mph 9.0 mph 69% 0.00 in
11:09 61.6 °F 50.5 °F 29.74 in WSW 4.0 mph 9.0 mph 67% 0.00 in
11:14 60.8 °F 48.1 °F 29.74 in SW 5.0 mph 10.0 mph 63% 0.00 in
11:19 61.2 °F 50.6 °F 29.73 in SW 2.0 mph 8.0 mph 68% 0.00 in
11:24 62.0 °F 51.3 °F 29.73 in West 4.0 mph 8.0 mph 68% 0.00 in
11:29 62.6 °F 52.3 °F 29.73 in SW 5.0 mph 8.0 mph 69% 0.00 in
11:34 62.4 °F 50.5 °F 29.73 in SW 5.0 mph 10.0 mph 65% 0.00 in
11:39 62.0 °F 50.9 °F 29.73 in SSW 5.0 mph 10.0 mph 67% 0.00 in
11:44 61.9 °F 50.0 °F 29.73 in SW 6.0 mph 12.0 mph 65% 0.00 in
11:49 62.4 °F 52.1 °F 29.73 in West 11.0 mph 13.0 mph 69% 0.00 in
11:54 61.1 °F 49.2 °F 29.72 in SW 6.0 mph 14.0 mph 65% 0.00 in
11:59 59.6 °F 48.6 °F 29.72 in SW 6.0 mph 14.0 mph 67% 0.00 in
12:04 58.0 °F 48.6 °F 29.73 in SW 10.0 mph 12.0 mph 71% 0.00 in
12:09 56.8 °F 48.6 °F 29.73 in WSW 4.0 mph 11.0 mph 74% 0.00 in
12:14 55.7 °F 48.9 °F 29.73 in West 8.0 mph 11.0 mph 78% 0.01 in
12:19 55.3 °F 49.9 °F 29.72 in SW 7.0 mph 9.0 mph 82% 0.02 in
12:24 55.5 °F 50.1 °F 29.72 in SW 5.0 mph 9.0 mph 82% 0.02 in
12:29 55.0 °F 49.3 °F 29.72 in SW 4.0 mph 10.0 mph 81% 0.02 in
12:34 54.8 °F 49.1 °F 29.72 in SSW 2.0 mph 8.0 mph 81% 0.03 in
12:39 54.3 °F 48.6 °F 29.72 in SW 2.0 mph 9.0 mph 81% 0.04 in
12:44 54.2 °F 48.8 °F 29.72 in SW 5.0 mph 11.0 mph 82% 0.05 in
12:49 54.2 °F 48.8 °F 29.71 in Calm   8.0 mph 82% 0.05 in
12:54 54.3 °F 48.6 °F 29.72 in SW 3.0 mph 8.0 mph 81% 0.06 in
12:59 54.3 °F 48.9 °F 29.72 in WSW 4.0 mph 11.0 mph 82% 0.08 in
13:04 53.7 °F 48.3 °F 29.73 in WSW 5.0 mph 11.0 mph 82% 0.13 in
13:09 52.9 °F 48.2 °F 29.71 in WSW 4.0 mph 9.0 mph 84% 0.21 in
13:14 52.8 °F 48.1 °F 29.71 in SW 5.0 mph 10.0 mph 84% 0.21 in
13:19 53.6 °F 49.2 °F 29.71 in WNW 3.0 mph 12.0 mph 85% 0.20 in
13:24 55.4 °F 50.6 °F 29.71 in West 4.0 mph 12.0 mph 84% 0.20 in
13:29 55.4 °F 51.0 °F 29.70 in West 2.0 mph 10.0 mph 85% 0.20 in
13:34 56.7 °F 52.2 °F 29.70 in West 8.0 mph 13.0 mph 85% 0.19 in
13:39 57.7 °F 51.6 °F 29.69 in WSW 6.0 mph 18.0 mph 80% 0.18 in
13:44 57.7 °F 50.9 °F 29.69 in SSW 5.0 mph 15.0 mph 78% 0.17 in
13:49 58.3 °F 51.5 °F 29.69 in SSW 5.0 mph 12.0 mph 78% 0.17 in
13:54 59.7 °F 52.1 °F 29.69 in WSW 7.0 mph 13.0 mph 76% 0.16 in
13:59 58.0 °F 49.4 °F 29.69 in WSW 6.0 mph 16.0 mph 73% 0.14 in
14:04 57.1 °F 48.9 °F 29.69 in WSW 6.0 mph 16.0 mph 74% 0.06 in
14:09 59.5 °F 51.6 °F 29.68 in WSW 6.0 mph 14.0 mph 75% 0.01 in
14:14 61.3 °F 52.2 °F 29.68 in WSW 6.0 mph 13.0 mph 72% 0.00 in
14:19 61.6 °F 50.5 °F 29.68 in WSW 7.0 mph 14.0 mph 67% 0.00 in
14:24 60.9 °F 49.5 °F 29.68 in West 7.0 mph 14.0 mph 66% 0.00 in
14:29 62.6 °F 46.7 °F 29.68 in WSW 12.0 mph 14.0 mph 56% 0.00 in
14:34 63.9 °F 41.5 °F 29.68 in West 18.0 mph 25.0 mph 44% 0.00 in
14:39 63.2 °F 40.9 °F 29.68 in WSW 10.0 mph 22.0 mph 44% 0.00 in
14:44 62.9 °F 41.2 °F 29.68 in NW 16.0 mph 21.0 mph 45% 0.00 in
14:49 62.1 °F 39.9 °F 29.69 in NW 6.0 mph 24.0 mph 44% 0.00 in
14:54 62.0 °F 38.0 °F 29.69 in WNW 10.0 mph 24.0 mph 41% 0.00 in
14:59 61.5 °F 36.9 °F 29.69 in WNW 9.0 mph 18.0 mph 40% 0.00 in
15:04 61.6 °F 38.3 °F 29.68 in WNW 9.0 mph 19.0 mph 42% 0.00 in
15:09 63.8 °F 38.4 °F 29.69 in WNW 9.0 mph 19.0 mph 39% 0.00 in
15:14 64.3 °F 38.8 °F 29.68 in WNW 10.0 mph 19.0 mph 39% 0.00 in
15:19 64.3 °F 39.4 °F 29.68 in West 7.0 mph 19.0 mph 40% 0.00 in
15:24 64.5 °F 40.3 °F 29.69 in WNW 9.0 mph 19.0 mph 41% 0.00 in
15:29 64.4 °F 41.4 °F 29.69 in WNW 9.0 mph 19.0 mph 43% 0.00 in
15:34 63.2 °F 38.5 °F 29.69 in WNW 7.0 mph 18.0 mph 40% 0.00 in
15:39 61.6 °F 40.6 °F 29.70 in North 7.0 mph 18.0 mph 46% 0.00 in
15:44 60.4 °F 41.1 °F 29.70 in NNW 5.0 mph 13.0 mph 49% 0.00 in
15:49 59.8 °F 40.6 °F 29.70 in NNW 5.0 mph 18.0 mph 49% 0.00 in
15:54 59.7 °F 41.5 °F 29.70 in NW 8.0 mph 22.0 mph 51% 0.00 in
15:59 59.1 °F 42.0 °F 29.70 in NW 8.0 mph 22.0 mph 53% 0.00 in
16:04 58.8 °F 42.7 °F 29.72 in NNW 9.0 mph 20.0 mph 55% 0.00 in
16:09 58.4 °F 43.2 °F 29.72 in NNW 13.0 mph 20.0 mph 57% 0.00 in
16:14 57.8 °F 43.1 °F 29.72 in NW 8.0 mph 21.0 mph 58% 0.00 in
16:19 57.2 °F 41.6 °F 29.72 in NNW 5.0 mph 19.0 mph 56% 0.00 in
16:24 56.9 °F 41.8 °F 29.73 in NW 8.0 mph 19.0 mph 57% 0.00 in
16:29 56.6 °F 41.5 °F 29.73 in NNW 7.0 mph 17.0 mph 57% 0.00 in
16:34 56.2 °F 42.1 °F 29.74 in NNW 7.0 mph 13.0 mph 59% 0.00 in
16:39 55.8 °F 42.1 °F 29.74 in NW 9.0 mph 14.0 mph 60% 0.00 in
16:44 55.4 °F 42.6 °F 29.74 in West 8.0 mph 14.0 mph 62% 0.00 in
16:49 55.1 °F 43.1 °F 29.75 in NW 6.0 mph 14.0 mph 64% 0.00 in
16:54 54.7 °F 42.8 °F 29.75 in NW 6.0 mph 13.0 mph 64% 0.00 in
16:59 54.4 °F 42.9 °F 29.75 in NW 6.0 mph 14.0 mph 65% 0.00 in
17:04 54.3 °F 42.8 °F 29.76 in NW 8.0 mph 15.0 mph 65% 0.00 in
17:09 54.1 °F 43.4 °F 29.76 in NW 7.0 mph 12.0 mph 67% 0.00 in
17:14 53.9 °F 43.2 °F 29.76 in NW 14.0 mph 14.0 mph 67% 0.00 in
17:19 53.8 °F 43.1 °F 29.76 in NNW 5.0 mph 15.0 mph 67% 0.00 in
17:24 53.8 °F 43.1 °F 29.77 in NW 7.0 mph 15.0 mph 67% 0.00 in
17:29 53.8 °F 42.7 °F 29.77 in NW 6.0 mph 13.0 mph 66% 0.00 in
17:34 53.9 °F 43.2 °F 29.77 in NW 5.0 mph 13.0 mph 67% 0.00 in
17:39 54.3 °F 43.2 °F 29.77 in NW 7.0 mph 17.0 mph 66% 0.00 in
17:44 54.7 °F 43.6 °F 29.77 in NW 7.0 mph 17.0 mph 66% 0.00 in
17:49 55.1 °F 43.5 °F 29.78 in NW 4.0 mph 15.0 mph 65% 0.00 in
17:54 55.2 °F 43.2 °F 29.78 in WNW 10.0 mph 15.0 mph 64% 0.00 in
17:59 55.5 °F 43.5 °F 29.78 in North 3.0 mph 11.0 mph 64% 0.00 in
18:04 55.9 °F 43.1 °F 29.78 in West 6.0 mph 15.0 mph 62% 0.00 in
18:09 56.6 °F 43.7 °F 29.78 in NW 4.0 mph 9.0 mph 62% 0.00 in
18:14 56.8 °F 43.5 °F 29.78 in NW 3.0 mph 13.0 mph 61% 0.00 in
18:19 57.0 °F 43.7 °F 29.78 in NW 5.0 mph 13.0 mph 61% 0.00 in
18:24 57.3 °F 43.5 °F 29.78 in NW 5.0 mph 12.0 mph 60% 0.00 in
18:29 57.2 °F 43.0 °F 29.78 in NW 6.0 mph 14.0 mph 59% 0.00 in
18:34 56.8 °F 41.7 °F 29.79 in NNW 7.0 mph 14.0 mph 57% 0.00 in
18:39 56.5 °F 41.9 °F 29.79 in NNW 11.0 mph 15.0 mph 58% 0.00 in
18:44 56.2 °F 41.6 °F 29.79 in NW 12.0 mph 15.0 mph 58% 0.00 in
18:49 56.0 °F 41.9 °F 29.80 in NW 6.0 mph 15.0 mph 59% 0.00 in
18:54 55.8 °F 40.8 °F 29.80 in NNW 9.0 mph 15.0 mph 57% 0.00 in
18:59 55.7 °F 41.1 °F 29.80 in NNW 12.0 mph 13.0 mph 58% 0.00 in
19:04 55.7 °F 40.7 °F 29.81 in NW 7.0 mph 16.0 mph 57% 0.00 in
19:09 55.5 °F 40.5 °F 29.81 in NNE 12.0 mph 17.0 mph 57% 0.00 in
19:14 55.4 °F 40.9 °F 29.81 in NW 12.0 mph 17.0 mph 58% 0.00 in
19:19 55.3 °F 40.8 °F 29.81 in NW 7.0 mph 17.0 mph 58% 0.00 in
19:24 55.2 °F 41.1 °F 29.81 in NW 6.0 mph 14.0 mph 59% 0.00 in
19:29 54.9 °F 40.8 °F 29.81 in NW 6.0 mph 16.0 mph 59% 0.00 in
19:34 54.7 °F 41.1 °F 29.81 in NW 5.0 mph 16.0 mph 60% 0.00 in
19:39 54.6 °F 40.6 °F 29.82 in NW 4.0 mph 13.0 mph 59% 0.00 in
19:44 54.3 °F 40.7 °F 29.82 in NNW 7.0 mph 14.0 mph 60% 0.00 in
19:49 54.1 °F 40.5 °F 29.82 in NW 7.0 mph 14.0 mph 60% 0.00 in
19:54 54.0 °F 40.8 °F 29.82 in NW 5.0 mph 14.0 mph 61% 0.00 in
19:59 53.9 °F 40.8 °F 29.82 in NNW 9.0 mph 15.0 mph 61% 0.00 in
20:04 53.8 °F 40.7 °F 29.83 in WNW 4.0 mph 18.0 mph 61% 0.00 in
20:09 53.6 °F 40.5 °F 29.83 in NW 2.0 mph 17.0 mph 61% 0.00 in
20:14 53.4 °F 40.7 °F 29.83 in NNE 8.0 mph 15.0 mph 62% 0.00 in
20:19 53.2 °F 40.5 °F 29.83 in NW 6.0 mph 15.0 mph 62% 0.00 in
20:24 53.0 °F 40.7 °F 29.83 in NW 6.0 mph 15.0 mph 63% 0.00 in
20:29 52.7 °F 40.5 °F 29.84 in WNW 5.0 mph 15.0 mph 63% 0.00 in
20:34 52.4 °F 40.6 °F 29.83 in WNW 8.0 mph 15.0 mph 64% 0.00 in
20:39 52.2 °F 40.8 °F 29.84 in WNW 3.0 mph 13.0 mph 65% 0.00 in
20:44 51.9 °F 40.9 °F 29.84 in NNW 9.0 mph 13.0 mph 66% 0.00 in
20:49 51.6 °F 40.6 °F 29.84 in NW 5.0 mph 13.0 mph 66% 0.00 in
20:54 51.4 °F 40.8 °F 29.85 in NW 5.0 mph 12.0 mph 67% 0.00 in
20:59 51.4 °F 40.8 °F 29.84 in West 2.0 mph 11.0 mph 67% 0.00 in
21:04 51.2 °F 41.0 °F 29.85 in NW 4.0 mph 8.0 mph 68% 0.00 in
21:09 50.9 °F 40.7 °F 29.85 in North 4.0 mph 8.0 mph 68% 0.00 in
21:14 50.9 °F 41.1 °F 29.85 in NW 4.0 mph 12.0 mph 69% 0.00 in
21:19 50.8 °F 41.0 °F 29.85 in NW 4.0 mph 12.0 mph 69% 0.00 in
21:24 50.7 °F 41.3 °F 29.86 in NW 4.0 mph 14.0 mph 70% 0.00 in
21:29 50.7 °F 41.3 °F 29.86 in NNW 7.0 mph 13.0 mph 70% 0.00 in
21:34 50.6 °F 41.2 °F 29.86 in NNW 3.0 mph 9.0 mph 70% 0.00 in
21:39 50.6 °F 41.2 °F 29.86 in WNW 4.0 mph 12.0 mph 70% 0.00 in
21:44 50.4 °F 41.3 °F 29.87 in NW 5.0 mph 12.0 mph 71% 0.00 in
21:49 50.4 °F 41.3 °F 29.87 in NW 4.0 mph 8.0 mph 71% 0.00 in
21:54 50.2 °F 41.5 °F 29.87 in NNW 2.0 mph 9.0 mph 72% 0.00 in
21:59 50.1 °F 41.4 °F 29.87 in NW 4.0 mph 9.0 mph 72% 0.00 in
22:04 50.0 °F 41.7 °F 29.88 in NW 4.0 mph 9.0 mph 73% 0.00 in
22:09 50.0 °F 41.7 °F 29.88 in NW 4.0 mph 8.0 mph 73% 0.00 in
22:14 50.0 °F 41.7 °F 29.88 in NW 4.0 mph 10.0 mph 73% 0.00 in
22:19 49.8 °F 41.5 °F 29.88 in NNW 3.0 mph 10.0 mph 73% 0.00 in
22:24 49.9 °F 41.6 °F 29.88 in NW 6.0 mph 12.0 mph 73% 0.00 in
22:29 49.8 °F 41.8 °F 29.88 in WNW 5.0 mph 9.0 mph 74% 0.00 in
22:34 49.9 °F 41.9 °F 29.88 in WNW 3.0 mph 11.0 mph 74% 0.00 in
22:39 50.0 °F 42.0 °F 29.88 in West 5.0 mph 8.0 mph 74% 0.00 in
22:44 50.1 °F 42.1 °F 29.88 in NW 4.0 mph 9.0 mph 74% 0.00 in
22:49 50.2 °F 42.2 °F 29.89 in NW 3.0 mph 9.0 mph 74% 0.00 in
22:54 50.2 °F 42.2 °F 29.89 in WNW 3.0 mph 7.0 mph 74% 0.00 in
22:59 50.3 °F 42.3 °F 29.89 in WNW 3.0 mph 9.0 mph 74% 0.00 in
23:04 50.2 °F 42.2 °F 29.89 in WNW 3.0 mph 9.0 mph 74% 0.00 in
23:09 50.3 °F 42.3 °F 29.90 in NNW 1.0 mph 7.0 mph 74% 0.00 in
23:14 50.3 °F 42.3 °F 29.90 in NW 4.0 mph 9.0 mph 74% 0.00 in
23:19 50.3 °F 42.3 °F 29.90 in WNW 4.0 mph 9.0 mph 74% 0.00 in
23:24 50.4 °F 42.4 °F 29.90 in NW 3.0 mph 6.0 mph 74% 0.00 in
23:29 50.3 °F 42.3 °F 29.90 in WNW 5.0 mph 9.0 mph 74% 0.00 in
23:34 50.3 °F 42.3 °F 29.90 in North 6.0 mph 10.0 mph 74% 0.00 in
23:39 50.4 °F 42.4 °F 29.90 in NW 4.0 mph 10.0 mph 74% 0.00 in
23:44 50.3 °F 42.3 °F 29.90 in NW 3.0 mph 9.0 mph 74% 0.00 in
23:49 50.1 °F 42.1 °F 29.90 in NNW 4.0 mph 7.0 mph 74% 0.00 in
23:54 49.9 °F 41.9 °F 29.90 in NW 3.0 mph 9.0 mph 74% 0.00 in
23:59 49.8 °F 42.2 °F 29.90 in NW 3.0 mph 7.0 mph 75% 0.00 in
Buffalo, New York, USA
Compliments of Weather Underground - 2.5 mb